sensor_id;sensor_type;location;lat;lon;timestamp;P1;durP1;ratioP1;P2;durP2;ratioP2
70301;SDS011;57706;56.326;43.882;2022-11-15T00:02:15;2.85;;;0.70;;
70301;SDS011;57706;56.326;43.882;2022-11-15T00:04:59;0.77;;;0.70;;
70301;SDS011;57706;56.326;43.882;2022-11-15T00:07:43;3.63;;;0.70;;
70301;SDS011;57706;56.326;43.882;2022-11-15T00:10:28;1.33;;;0.80;;
70301;SDS011;57706;56.326;43.882;2022-11-15T00:13:12;2.38;;;0.85;;
70301;SDS011;57706;56.326;43.882;2022-11-15T00:15:57;3.65;;;1.02;;
70301;SDS011;57706;56.326;43.882;2022-11-15T00:18:42;2.95;;;0.90;;
70301;SDS011;57706;56.326;43.882;2022-11-15T00:24:11;3.50;;;0.90;;
70301;SDS011;57706;56.326;43.882;2022-11-15T00:26:55;3.63;;;0.95;;
70301;SDS011;57706;56.326;43.882;2022-11-15T00:29:39;1.65;;;0.82;;
70301;SDS011;57706;56.326;43.882;2022-11-15T00:32:31;2.17;;;0.88;;
70301;SDS011;57706;56.326;43.882;2022-11-15T00:35:16;5.88;;;1.00;;
70301;SDS011;57706;56.326;43.882;2022-11-15T00:38:00;1.95;;;1.00;;
70301;SDS011;57706;56.326;43.882;2022-11-15T00:40:46;3.53;;;0.90;;
70301;SDS011;57706;56.326;43.882;2022-11-15T00:43:30;4.60;;;1.08;;
70301;SDS011;57706;56.326;43.882;2022-11-15T00:46:15;1.25;;;0.70;;
70301;SDS011;57706;56.326;43.882;2022-11-15T00:48:59;3.35;;;1.35;;
70301;SDS011;57706;56.326;43.882;2022-11-15T00:54:28;2.90;;;0.80;;
70301;SDS011;57706;56.326;43.882;2022-11-15T00:57:12;1.35;;;0.80;;
70301;SDS011;57706;56.326;43.882;2022-11-15T00:59:56;4.30;;;0.93;;
70301;SDS011;57706;56.326;43.882;2022-11-15T01:02:41;1.33;;;0.73;;
70301;SDS011;57706;56.326;43.882;2022-11-15T01:05:25;2.95;;;0.52;;
70301;SDS011;57706;56.326;43.882;2022-11-15T01:08:12;4.32;;;0.80;;
70301;SDS011;57706;56.326;43.882;2022-11-15T01:11:01;2.05;;;0.63;;
70301;SDS011;57706;56.326;43.882;2022-11-15T01:13:49;1.33;;;0.60;;
70301;SDS011;57706;56.326;43.882;2022-11-15T01:16:33;3.10;;;0.80;;
70301;SDS011;57706;56.326;43.882;2022-11-15T01:19:17;1.17;;;0.52;;
70301;SDS011;57706;56.326;43.882;2022-11-15T01:22:01;1.83;;;0.57;;
70301;SDS011;57706;56.326;43.882;2022-11-15T01:24:46;3.55;;;0.60;;
70301;SDS011;57706;56.326;43.882;2022-11-15T01:27:30;0.65;;;0.65;;
70301;SDS011;57706;56.326;43.882;2022-11-15T01:30:14;4.50;;;0.60;;
70301;SDS011;57706;56.326;43.882;2022-11-15T01:32:59;3.05;;;0.80;;
70301;SDS011;57706;56.326;43.882;2022-11-15T01:35:43;1.90;;;0.80;;
70301;SDS011;57706;56.326;43.882;2022-11-15T01:38:28;4.13;;;0.70;;
70301;SDS011;57706;56.326;43.882;2022-11-15T01:41:19;2.30;;;0.63;;
70301;SDS011;57706;56.326;43.882;2022-11-15T01:47:24;5.22;;;1.05;;
70301;SDS011;57706;56.326;43.882;2022-11-15T01:50:14;1.42;;;0.75;;
70301;SDS011;57706;56.326;43.882;2022-11-15T01:53:02;2.88;;;1.10;;
70301;SDS011;57706;56.326;43.882;2022-11-15T01:55:47;5.57;;;1.63;;
70301;SDS011;57706;56.326;43.882;2022-11-15T01:58:31;2.58;;;1.00;;
70301;SDS011;57706;56.326;43.882;2022-11-15T02:01:16;1.85;;;0.75;;
70301;SDS011;57706;56.326;43.882;2022-11-15T02:04:43;1.00;;;0.50;;
70301;SDS011;57706;56.326;43.882;2022-11-15T02:07:08;1.80;;;0.65;;
70301;SDS011;57706;56.326;43.882;2022-11-15T02:09:55;3.90;;;0.70;;
70301;SDS011;57706;56.326;43.882;2022-11-15T02:12:45;3.10;;;0.77;;
70301;SDS011;57706;56.326;43.882;2022-11-15T02:15:33;1.42;;;0.70;;
70301;SDS011;57706;56.326;43.882;2022-11-15T02:36:29;3.63;;;0.95;;
70301;SDS011;57706;56.326;43.882;2022-11-15T02:42:25;1.73;;;1.00;;
70301;SDS011;57706;56.326;43.882;2022-11-15T02:45:32;0.98;;;0.80;;
70301;SDS011;57706;56.326;43.882;2022-11-15T02:48:23;1.58;;;0.88;;
70301;SDS011;57706;56.326;43.882;2022-11-15T02:51:09;2.33;;;0.73;;
70301;SDS011;57706;56.326;43.882;2022-11-15T02:53:53;7.55;;;1.20;;
70301;SDS011;57706;56.326;43.882;2022-11-15T02:56:38;3.55;;;0.80;;
70301;SDS011;57706;56.326;43.882;2022-11-15T03:05:25;3.50;;;1.88;;
70301;SDS011;57706;56.326;43.882;2022-11-15T03:08:21;3.70;;;0.93;;
70301;SDS011;57706;56.326;43.882;2022-11-15T03:11:11;3.03;;;1.30;;
70301;SDS011;57706;56.326;43.882;2022-11-15T03:14:00;4.63;;;1.40;;
70301;SDS011;57706;56.326;43.882;2022-11-15T03:19:48;4.15;;;1.50;;
70301;SDS011;57706;56.326;43.882;2022-11-15T03:22:36;3.70;;;1.05;;
70301;SDS011;57706;56.326;43.882;2022-11-15T03:25:26;10.57;;;6.18;;
70301;SDS011;57706;56.326;43.882;2022-11-15T03:28:16;1.90;;;1.00;;
70301;SDS011;57706;56.326;43.882;2022-11-15T03:31:06;3.90;;;0.77;;
70301;SDS011;57706;56.326;43.882;2022-11-15T03:34:12;4.68;;;1.25;;
70301;SDS011;57706;56.326;43.882;2022-11-15T03:37:04;2.58;;;0.80;;
70301;SDS011;57706;56.326;43.882;2022-11-15T03:39:50;2.08;;;0.90;;
70301;SDS011;57706;56.326;43.882;2022-11-15T03:42:48;4.40;;;0.98;;
70301;SDS011;57706;56.326;43.882;2022-11-15T03:45:49;4.97;;;1.02;;
70301;SDS011;57706;56.326;43.882;2022-11-15T03:48:47;3.47;;;0.90;;
70301;SDS011;57706;56.326;43.882;2022-11-15T03:51:35;2.60;;;1.25;;
70301;SDS011;57706;56.326;43.882;2022-11-15T03:54:20;3.95;;;0.95;;
70301;SDS011;57706;56.326;43.882;2022-11-15T03:57:04;5.82;;;1.25;;
70301;SDS011;57706;56.326;43.882;2022-11-15T04:02:33;2.47;;;0.93;;
70301;SDS011;57706;56.326;43.882;2022-11-15T04:05:17;2.70;;;1.05;;
70301;SDS011;57706;56.326;43.882;2022-11-15T04:08:01;2.13;;;1.25;;
70301;SDS011;57706;56.326;43.882;2022-11-15T04:10:48;3.65;;;1.13;;
70301;SDS011;57706;56.326;43.882;2022-11-15T04:13:32;2.03;;;1.38;;
70301;SDS011;57706;56.326;43.882;2022-11-15T04:16:16;1.13;;;1.02;;
70301;SDS011;57706;56.326;43.882;2022-11-15T04:19:01;4.82;;;1.45;;
70301;SDS011;57706;56.326;43.882;2022-11-15T04:22:04;3.70;;;1.20;;
70301;SDS011;57706;56.326;43.882;2022-11-15T04:25:10;1.50;;;1.20;;
70301;SDS011;57706;56.326;43.882;2022-11-15T04:27:54;2.83;;;1.13;;
70301;SDS011;57706;56.326;43.882;2022-11-15T04:30:38;5.88;;;1.70;;
70301;SDS011;57706;56.326;43.882;2022-11-15T04:33:23;8.75;;;1.65;;
70301;SDS011;57706;56.326;43.882;2022-11-15T04:36:07;5.55;;;1.30;;
70301;SDS011;57706;56.326;43.882;2022-11-15T04:39:24;3.53;;;1.20;;
70301;SDS011;57706;56.326;43.882;2022-11-15T04:42:08;4.05;;;1.48;;
70301;SDS011;57706;56.326;43.882;2022-11-15T04:44:53;5.47;;;1.50;;
70301;SDS011;57706;56.326;43.882;2022-11-15T04:47:37;5.25;;;1.27;;
70301;SDS011;57706;56.326;43.882;2022-11-15T04:50:22;6.60;;;1.65;;
70301;SDS011;57706;56.326;43.882;2022-11-15T04:55:50;2.58;;;1.52;;
70301;SDS011;57706;56.326;43.882;2022-11-15T04:58:35;5.47;;;1.70;;
70301;SDS011;57706;56.326;43.882;2022-11-15T05:01:19;7.20;;;1.45;;
70301;SDS011;57706;56.326;43.882;2022-11-15T05:07:02;3.67;;;1.48;;
70301;SDS011;57706;56.326;43.882;2022-11-15T05:09:50;3.30;;;1.45;;
70301;SDS011;57706;56.326;43.882;2022-11-15T05:15:18;4.43;;;1.55;;
70301;SDS011;57706;56.326;43.882;2022-11-15T05:18:03;4.70;;;1.52;;
70301;SDS011;57706;56.326;43.882;2022-11-15T05:20:47;2.70;;;1.38;;
70301;SDS011;57706;56.326;43.882;2022-11-15T05:23:31;3.45;;;1.08;;
70301;SDS011;57706;56.326;43.882;2022-11-15T05:26:16;2.35;;;1.30;;
70301;SDS011;57706;56.326;43.882;2022-11-15T05:29:02;3.47;;;1.50;;
70301;SDS011;57706;56.326;43.882;2022-11-15T05:31:46;3.25;;;1.30;;
70301;SDS011;57706;56.326;43.882;2022-11-15T05:37:15;3.45;;;1.00;;
70301;SDS011;57706;56.326;43.882;2022-11-15T05:40:00;4.35;;;1.48;;
70301;SDS011;57706;56.326;43.882;2022-11-15T05:42:48;5.28;;;1.30;;
70301;SDS011;57706;56.326;43.882;2022-11-15T05:45:32;4.57;;;1.30;;
70301;SDS011;57706;56.326;43.882;2022-11-15T05:48:18;4.10;;;1.10;;
70301;SDS011;57706;56.326;43.882;2022-11-15T05:51:03;5.13;;;1.58;;
70301;SDS011;57706;56.326;43.882;2022-11-15T05:53:50;4.03;;;1.45;;
70301;SDS011;57706;56.326;43.882;2022-11-15T05:56:36;5.82;;;1.88;;
70301;SDS011;57706;56.326;43.882;2022-11-15T05:59:21;6.43;;;1.92;;
70301;SDS011;57706;56.326;43.882;2022-11-15T06:02:06;7.78;;;2.08;;
70301;SDS011;57706;56.326;43.882;2022-11-15T06:04:50;7.25;;;2.20;;
70301;SDS011;57706;56.326;43.882;2022-11-15T06:07:35;6.47;;;1.92;;
70301;SDS011;57706;56.326;43.882;2022-11-15T06:13:04;9.13;;;2.30;;
70301;SDS011;57706;56.326;43.882;2022-11-15T06:15:49;5.85;;;2.50;;
70301;SDS011;57706;56.326;43.882;2022-11-15T06:18:33;4.47;;;2.30;;
70301;SDS011;57706;56.326;43.882;2022-11-15T06:21:18;7.22;;;2.42;;
70301;SDS011;57706;56.326;43.882;2022-11-15T06:24:03;8.80;;;2.10;;
70301;SDS011;57706;56.326;43.882;2022-11-15T06:26:48;7.38;;;1.63;;
70301;SDS011;57706;56.326;43.882;2022-11-15T06:29:33;4.10;;;2.03;;
70301;SDS011;57706;56.326;43.882;2022-11-15T06:32:17;7.05;;;1.77;;
70301;SDS011;57706;56.326;43.882;2022-11-15T06:35:01;5.63;;;1.98;;
70301;SDS011;57706;56.326;43.882;2022-11-15T06:37:46;6.18;;;2.08;;
70301;SDS011;57706;56.326;43.882;2022-11-15T06:40:32;14.65;;;2.25;;
70301;SDS011;57706;56.326;43.882;2022-11-15T06:43:20;3.30;;;1.13;;
70301;SDS011;57706;56.326;43.882;2022-11-15T06:46:04;3.97;;;1.70;;
70301;SDS011;57706;56.326;43.882;2022-11-15T06:48:51;11.60;;;1.83;;
70301;SDS011;57706;56.326;43.882;2022-11-15T06:51:37;5.50;;;1.63;;
70301;SDS011;57706;56.326;43.882;2022-11-15T06:54:21;6.65;;;1.67;;
70301;SDS011;57706;56.326;43.882;2022-11-15T06:57:06;8.95;;;1.98;;
70301;SDS011;57706;56.326;43.882;2022-11-15T06:59:50;3.53;;;1.33;;
70301;SDS011;57706;56.326;43.882;2022-11-15T07:02:34;3.50;;;1.10;;
70301;SDS011;57706;56.326;43.882;2022-11-15T07:05:19;3.28;;;1.15;;
70301;SDS011;57706;56.326;43.882;2022-11-15T07:10:47;4.03;;;1.30;;
70301;SDS011;57706;56.326;43.882;2022-11-15T07:13:32;1.20;;;0.80;;
70301;SDS011;57706;56.326;43.882;2022-11-15T07:16:18;1.83;;;1.67;;
70301;SDS011;57706;56.326;43.882;2022-11-15T07:19:02;2.83;;;1.17;;
70301;SDS011;57706;56.326;43.882;2022-11-15T07:21:47;4.47;;;1.63;;
70301;SDS011;57706;56.326;43.882;2022-11-15T07:27:15;3.50;;;1.35;;
70301;SDS011;57706;56.326;43.882;2022-11-15T07:30:00;8.73;;;2.00;;
70301;SDS011;57706;56.326;43.882;2022-11-15T07:32:44;3.33;;;1.90;;
70301;SDS011;57706;56.326;43.882;2022-11-15T07:35:30;3.40;;;1.52;;
70301;SDS011;57706;56.326;43.882;2022-11-15T07:38:14;4.13;;;1.48;;
70301;SDS011;57706;56.326;43.882;2022-11-15T07:40:59;5.07;;;1.42;;
70301;SDS011;57706;56.326;43.882;2022-11-15T07:43:45;4.25;;;1.50;;
70301;SDS011;57706;56.326;43.882;2022-11-15T07:46:29;3.72;;;2.05;;
70301;SDS011;57706;56.326;43.882;2022-11-15T07:49:15;4.68;;;1.83;;
70301;SDS011;57706;56.326;43.882;2022-11-15T07:51:59;4.03;;;2.00;;
70301;SDS011;57706;56.326;43.882;2022-11-15T07:54:43;7.45;;;2.40;;
70301;SDS011;57706;56.326;43.882;2022-11-15T07:57:29;2.75;;;1.50;;
70301;SDS011;57706;56.326;43.882;2022-11-15T08:00:14;3.90;;;1.35;;
70301;SDS011;57706;56.326;43.882;2022-11-15T08:03:02;10.30;;;1.70;;
70301;SDS011;57706;56.326;43.882;2022-11-15T08:05:57;3.50;;;1.67;;
70301;SDS011;57706;56.326;43.882;2022-11-15T08:08:41;2.53;;;1.85;;
70301;SDS011;57706;56.326;43.882;2022-11-15T08:11:25;6.35;;;1.50;;
70301;SDS011;57706;56.326;43.882;2022-11-15T08:14:10;7.45;;;1.30;;
70301;SDS011;57706;56.326;43.882;2022-11-15T08:19:39;3.42;;;1.60;;
70301;SDS011;57706;56.326;43.882;2022-11-15T08:25:07;3.22;;;1.52;;
70301;SDS011;57706;56.326;43.882;2022-11-15T08:30:37;5.07;;;1.88;;
70301;SDS011;57706;56.326;43.882;2022-11-15T08:33:25;6.57;;;1.77;;
70301;SDS011;57706;56.326;43.882;2022-11-15T08:36:13;6.25;;;2.10;;
70301;SDS011;57706;56.326;43.882;2022-11-15T08:38:59;3.85;;;2.10;;
70301;SDS011;57706;56.326;43.882;2022-11-15T08:44:28;5.97;;;1.88;;
70301;SDS011;57706;56.326;43.882;2022-11-15T08:47:13;6.32;;;2.50;;
70301;SDS011;57706;56.326;43.882;2022-11-15T08:49:57;5.55;;;1.80;;
70301;SDS011;57706;56.326;43.882;2022-11-15T08:52:42;3.53;;;1.67;;
70301;SDS011;57706;56.326;43.882;2022-11-15T08:55:26;2.08;;;1.55;;
70301;SDS011;57706;56.326;43.882;2022-11-15T09:00:54;4.93;;;1.55;;
70301;SDS011;57706;56.326;43.882;2022-11-15T09:03:39;4.18;;;1.75;;
70301;SDS011;57706;56.326;43.882;2022-11-15T09:06:24;5.93;;;1.48;;
70301;SDS011;57706;56.326;43.882;2022-11-15T09:11:52;5.95;;;1.88;;
70301;SDS011;57706;56.326;43.882;2022-11-15T09:14:37;4.38;;;1.80;;
70301;SDS011;57706;56.326;43.882;2022-11-15T09:17:22;4.30;;;1.80;;
70301;SDS011;57706;56.326;43.882;2022-11-15T09:22:50;7.63;;;2.60;;
70301;SDS011;57706;56.326;43.882;2022-11-15T09:25:35;4.45;;;1.85;;
70301;SDS011;57706;56.326;43.882;2022-11-15T09:28:19;4.70;;;1.90;;
70301;SDS011;57706;56.326;43.882;2022-11-15T09:31:04;5.15;;;1.50;;
70301;SDS011;57706;56.326;43.882;2022-11-15T09:33:49;2.67;;;1.70;;
70301;SDS011;57706;56.326;43.882;2022-11-15T09:39:18;11.27;;;1.90;;
70301;SDS011;57706;56.326;43.882;2022-11-15T09:45:15;6.47;;;2.38;;
70301;SDS011;57706;56.326;43.882;2022-11-15T09:51:12;5.97;;;2.40;;
70301;SDS011;57706;56.326;43.882;2022-11-15T09:53:49;7.20;;;2.17;;
70301;SDS011;57706;56.326;43.882;2022-11-15T09:56:29;5.55;;;2.35;;
70301;SDS011;57706;56.326;43.882;2022-11-15T10:04:36;10.50;;;3.03;;
70301;SDS011;57706;56.326;43.882;2022-11-15T10:12:52;9.90;;;3.20;;
70301;SDS011;57706;56.326;43.882;2022-11-15T10:15:19;4.43;;;1.85;;
70301;SDS011;57706;56.326;43.882;2022-11-15T10:20:28;5.28;;;2.20;;
70301;SDS011;57706;56.326;43.882;2022-11-15T10:22:56;4.68;;;2.42;;
70301;SDS011;57706;56.326;43.882;2022-11-15T10:25:29;3.85;;;1.88;;
70301;SDS011;57706;56.326;43.882;2022-11-15T10:30:30;9.02;;;3.10;;
70301;SDS011;57706;56.326;43.882;2022-11-15T10:33:09;7.22;;;2.35;;
70301;SDS011;57706;56.326;43.882;2022-11-15T10:35:39;12.25;;;3.55;;
70301;SDS011;57706;56.326;43.882;2022-11-15T10:38:11;10.43;;;2.63;;
70301;SDS011;57706;56.326;43.882;2022-11-15T10:40:38;4.82;;;2.45;;
70301;SDS011;57706;56.326;43.882;2022-11-15T10:46:16;12.52;;;3.38;;
70301;SDS011;57706;56.326;43.882;2022-11-15T10:48:45;7.85;;;2.20;;
70301;SDS011;57706;56.326;43.882;2022-11-15T10:51:19;14.32;;;2.60;;
70301;SDS011;57706;56.326;43.882;2022-11-15T10:53:57;9.30;;;2.25;;
70301;SDS011;57706;56.326;43.882;2022-11-15T10:56:26;5.50;;;2.30;;
70301;SDS011;57706;56.326;43.882;2022-11-15T10:58:56;7.00;;;2.30;;
70301;SDS011;57706;56.326;43.882;2022-11-15T11:01:26;11.93;;;2.67;;
70301;SDS011;57706;56.326;43.882;2022-11-15T11:04:01;15.93;;;3.42;;
70301;SDS011;57706;56.326;43.882;2022-11-15T11:06:29;11.05;;;2.55;;
70301;SDS011;57706;56.326;43.882;2022-11-15T11:09:18;5.03;;;2.35;;
70301;SDS011;57706;56.326;43.882;2022-11-15T11:11:53;12.30;;;2.55;;
70301;SDS011;57706;56.326;43.882;2022-11-15T11:14:23;9.55;;;2.30;;
70301;SDS011;57706;56.326;43.882;2022-11-15T11:19:56;6.88;;;2.60;;
70301;SDS011;57706;56.326;43.882;2022-11-15T11:22:41;5.88;;;2.70;;
70301;SDS011;57706;56.326;43.882;2022-11-15T11:35:59;7.75;;;3.05;;
70301;SDS011;57706;56.326;43.882;2022-11-15T11:39:02;10.32;;;3.30;;
70301;SDS011;57706;56.326;43.882;2022-11-15T11:41:56;7.43;;;2.90;;
70301;SDS011;57706;56.326;43.882;2022-11-15T11:49:28;12.18;;;3.65;;
70301;SDS011;57706;56.326;43.882;2022-11-15T11:52:04;8.30;;;2.80;;
70301;SDS011;57706;56.326;43.882;2022-11-15T12:02:38;7.68;;;2.80;;
70301;SDS011;57706;56.326;43.882;2022-11-15T12:05:29;11.73;;;3.42;;
70301;SDS011;57706;56.326;43.882;2022-11-15T12:11:12;11.75;;;3.65;;
70301;SDS011;57706;56.326;43.882;2022-11-15T12:13:42;14.35;;;4.70;;
70301;SDS011;57706;56.326;43.882;2022-11-15T12:16:17;10.27;;;4.68;;
70301;SDS011;57706;56.326;43.882;2022-11-15T12:18:48;7.03;;;3.33;;
70301;SDS011;57706;56.326;43.882;2022-11-15T12:23:59;6.78;;;2.65;;
70301;SDS011;57706;56.326;43.882;2022-11-15T12:26:40;5.50;;;2.45;;
70301;SDS011;57706;56.326;43.882;2022-11-15T12:29:36;9.35;;;3.10;;
70301;SDS011;57706;56.326;43.882;2022-11-15T12:32:04;8.15;;;3.60;;
70301;SDS011;57706;56.326;43.882;2022-11-15T12:34:42;10.63;;;3.58;;
70301;SDS011;57706;56.326;43.882;2022-11-15T12:37:32;12.25;;;3.28;;
70301;SDS011;57706;56.326;43.882;2022-11-15T12:45:54;9.93;;;4.30;;
70301;SDS011;57706;56.326;43.882;2022-11-15T12:51:01;6.68;;;3.00;;
70301;SDS011;57706;56.326;43.882;2022-11-15T12:53:28;8.63;;;2.97;;
70301;SDS011;57706;56.326;43.882;2022-11-15T12:56:09;10.85;;;2.88;;
70301;SDS011;57706;56.326;43.882;2022-11-15T13:01:07;7.35;;;2.70;;
70301;SDS011;57706;56.326;43.882;2022-11-15T13:03:33;6.82;;;3.40;;
70301;SDS011;57706;56.326;43.882;2022-11-15T13:06:00;9.45;;;3.22;;
70301;SDS011;57706;56.326;43.882;2022-11-15T13:08:40;8.05;;;2.35;;
70301;SDS011;57706;56.326;43.882;2022-11-15T13:11:43;9.70;;;2.70;;
70301;SDS011;57706;56.326;43.882;2022-11-15T13:17:21;10.32;;;3.38;;
70301;SDS011;57706;56.326;43.882;2022-11-15T13:22:40;10.70;;;3.40;;
70301;SDS011;57706;56.326;43.882;2022-11-15T13:31:02;8.55;;;3.75;;
70301;SDS011;57706;56.326;43.882;2022-11-15T13:33:33;13.13;;;3.30;;
70301;SDS011;57706;56.326;43.882;2022-11-15T13:36:02;6.72;;;2.88;;
70301;SDS011;57706;56.326;43.882;2022-11-15T13:38:35;12.10;;;3.28;;
70301;SDS011;57706;56.326;43.882;2022-11-15T13:41:22;9.68;;;3.15;;
70301;SDS011;57706;56.326;43.882;2022-11-15T13:43:50;9.10;;;3.33;;
70301;SDS011;57706;56.326;43.882;2022-11-15T13:46:22;13.65;;;3.42;;
70301;SDS011;57706;56.326;43.882;2022-11-15T13:49:00;8.60;;;3.08;;
70301;SDS011;57706;56.326;43.882;2022-11-15T13:57:22;10.73;;;4.43;;
70301;SDS011;57706;56.326;43.882;2022-11-15T14:00:03;7.43;;;3.88;;
70301;SDS011;57706;56.326;43.882;2022-11-15T14:02:50;10.95;;;4.03;;
70301;SDS011;57706;56.326;43.882;2022-11-15T14:05:19;13.38;;;3.65;;
70301;SDS011;57706;56.326;43.882;2022-11-15T14:07:53;10.75;;;4.32;;
70301;SDS011;57706;56.326;43.882;2022-11-15T14:10:39;12.40;;;4.50;;
70301;SDS011;57706;56.326;43.882;2022-11-15T14:13:26;18.33;;;4.97;;
70301;SDS011;57706;56.326;43.882;2022-11-15T14:15:53;20.27;;;6.07;;
70301;SDS011;57706;56.326;43.882;2022-11-15T14:18:43;20.33;;;5.25;;
70301;SDS011;57706;56.326;43.882;2022-11-15T14:21:09;16.20;;;5.22;;
70301;SDS011;57706;56.326;43.882;2022-11-15T14:23:36;14.80;;;5.65;;
70301;SDS011;57706;56.326;43.882;2022-11-15T14:26:02;17.52;;;5.43;;
70301;SDS011;57706;56.326;43.882;2022-11-15T14:28:29;13.63;;;6.13;;
70301;SDS011;57706;56.326;43.882;2022-11-15T14:31:16;13.60;;;5.40;;
70301;SDS011;57706;56.326;43.882;2022-11-15T14:33:42;10.75;;;4.88;;
70301;SDS011;57706;56.326;43.882;2022-11-15T14:36:12;11.10;;;4.93;;
70301;SDS011;57706;56.326;43.882;2022-11-15T14:38:40;9.80;;;4.82;;
70301;SDS011;57706;56.326;43.882;2022-11-15T14:41:18;9.80;;;4.65;;
70301;SDS011;57706;56.326;43.882;2022-11-15T14:43:52;9.90;;;3.80;;
70301;SDS011;57706;56.326;43.882;2022-11-15T14:46:18;7.00;;;3.17;;
70301;SDS011;57706;56.326;43.882;2022-11-15T14:48:44;6.80;;;3.38;;
70301;SDS011;57706;56.326;43.882;2022-11-15T14:51:14;9.63;;;3.33;;
70301;SDS011;57706;56.326;43.882;2022-11-15T14:56:09;5.78;;;3.40;;
70301;SDS011;57706;56.326;43.882;2022-11-15T14:58:35;5.65;;;2.88;;
70301;SDS011;57706;56.326;43.882;2022-11-15T15:01:02;5.47;;;2.55;;
70301;SDS011;57706;56.326;43.882;2022-11-15T15:03:36;7.07;;;3.35;;
70301;SDS011;57706;56.326;43.882;2022-11-15T15:06:02;11.55;;;3.90;;
70301;SDS011;57706;56.326;43.882;2022-11-15T15:08:28;6.40;;;3.13;;
70301;SDS011;57706;56.326;43.882;2022-11-15T15:10:54;6.82;;;3.00;;
70301;SDS011;57706;56.326;43.882;2022-11-15T15:13:21;9.00;;;3.22;;
70301;SDS011;57706;56.326;43.882;2022-11-15T15:15:49;9.85;;;3.75;;
70301;SDS011;57706;56.326;43.882;2022-11-15T15:18:16;6.55;;;3.50;;
70301;SDS011;57706;56.326;43.882;2022-11-15T15:20:43;6.43;;;3.55;;
70301;SDS011;57706;56.326;43.882;2022-11-15T15:23:17;11.73;;;3.40;;
70301;SDS011;57706;56.326;43.882;2022-11-15T15:25:45;7.00;;;3.70;;
70301;SDS011;57706;56.326;43.882;2022-11-15T15:28:13;9.35;;;4.00;;
70301;SDS011;57706;56.326;43.882;2022-11-15T15:30:39;9.18;;;4.03;;
70301;SDS011;57706;56.326;43.882;2022-11-15T15:33:04;10.43;;;4.95;;
70301;SDS011;57706;56.326;43.882;2022-11-15T15:35:32;14.43;;;4.80;;
70301;SDS011;57706;56.326;43.882;2022-11-15T15:37:59;7.22;;;4.22;;
70301;SDS011;57706;56.326;43.882;2022-11-15T15:40:26;8.35;;;4.13;;
70301;SDS011;57706;56.326;43.882;2022-11-15T15:42:54;7.40;;;4.30;;
70301;SDS011;57706;56.326;43.882;2022-11-15T15:45:19;9.98;;;5.10;;
70301;SDS011;57706;56.326;43.882;2022-11-15T15:47:45;9.13;;;4.53;;
70301;SDS011;57706;56.326;43.882;2022-11-15T15:50:15;11.15;;;4.63;;
70301;SDS011;57706;56.326;43.882;2022-11-15T15:52:46;8.75;;;3.70;;
70301;SDS011;57706;56.326;43.882;2022-11-15T15:55:12;9.65;;;5.03;;
70301;SDS011;57706;56.326;43.882;2022-11-15T15:57:39;10.20;;;4.68;;
70301;SDS011;57706;56.326;43.882;2022-11-15T16:00:05;11.10;;;5.82;;
70301;SDS011;57706;56.326;43.882;2022-11-15T16:02:38;12.18;;;5.45;;
70301;SDS011;57706;56.326;43.882;2022-11-15T16:05:04;12.20;;;5.88;;
70301;SDS011;57706;56.326;43.882;2022-11-15T16:07:31;11.40;;;6.55;;
70301;SDS011;57706;56.326;43.882;2022-11-15T16:09:57;12.25;;;6.10;;
70301;SDS011;57706;56.326;43.882;2022-11-15T16:12:35;11.98;;;5.45;;
70301;SDS011;57706;56.326;43.882;2022-11-15T16:15:01;9.02;;;4.93;;
70301;SDS011;57706;56.326;43.882;2022-11-15T16:17:32;11.25;;;4.88;;
70301;SDS011;57706;56.326;43.882;2022-11-15T16:20:00;10.38;;;4.47;;
70301;SDS011;57706;56.326;43.882;2022-11-15T16:22:28;6.25;;;3.30;;
70301;SDS011;57706;56.326;43.882;2022-11-15T16:24:54;9.45;;;3.38;;
70301;SDS011;57706;56.326;43.882;2022-11-15T16:27:21;7.68;;;3.45;;
70301;SDS011;57706;56.326;43.882;2022-11-15T16:29:47;7.63;;;3.35;;
70301;SDS011;57706;56.326;43.882;2022-11-15T16:32:14;6.80;;;3.38;;
70301;SDS011;57706;56.326;43.882;2022-11-15T16:34:40;8.55;;;3.10;;
70301;SDS011;57706;56.326;43.882;2022-11-15T16:37:18;10.43;;;3.90;;
70301;SDS011;57706;56.326;43.882;2022-11-15T16:39:48;10.05;;;3.55;;
70301;SDS011;57706;56.326;43.882;2022-11-15T16:42:15;7.78;;;3.83;;
70301;SDS011;57706;56.326;43.882;2022-11-15T16:44:41;9.05;;;3.17;;
70301;SDS011;57706;56.326;43.882;2022-11-15T16:47:15;6.10;;;3.50;;
70301;SDS011;57706;56.326;43.882;2022-11-15T16:49:43;12.52;;;4.60;;
70301;SDS011;57706;56.326;43.882;2022-11-15T16:52:09;12.68;;;3.25;;
70301;SDS011;57706;56.326;43.882;2022-11-15T16:54:35;8.20;;;3.35;;
70301;SDS011;57706;56.326;43.882;2022-11-15T16:57:01;5.75;;;2.60;;
70301;SDS011;57706;56.326;43.882;2022-11-15T16:59:27;6.53;;;3.17;;
70301;SDS011;57706;56.326;43.882;2022-11-15T17:01:52;5.85;;;3.28;;
70301;SDS011;57706;56.326;43.882;2022-11-15T17:04:18;5.78;;;3.15;;
70301;SDS011;57706;56.326;43.882;2022-11-15T17:06:47;5.80;;;2.95;;
70301;SDS011;57706;56.326;43.882;2022-11-15T17:09:14;12.32;;;3.20;;
70301;SDS011;57706;56.326;43.882;2022-11-15T17:11:42;7.90;;;3.10;;
70301;SDS011;57706;56.326;43.882;2022-11-15T17:14:09;10.05;;;3.40;;
70301;SDS011;57706;56.326;43.882;2022-11-15T17:16:36;8.90;;;3.05;;
70301;SDS011;57706;56.326;43.882;2022-11-15T17:19:10;7.55;;;3.28;;
70301;SDS011;57706;56.326;43.882;2022-11-15T17:21:38;10.10;;;3.10;;
70301;SDS011;57706;56.326;43.882;2022-11-15T17:24:04;9.75;;;2.97;;
70301;SDS011;57706;56.326;43.882;2022-11-15T17:26:30;6.57;;;3.17;;
70301;SDS011;57706;56.326;43.882;2022-11-15T17:28:56;6.70;;;2.58;;
70301;SDS011;57706;56.326;43.882;2022-11-15T17:31:22;9.50;;;3.13;;
70301;SDS011;57706;56.326;43.882;2022-11-15T17:33:47;6.10;;;2.80;;
70301;SDS011;57706;56.326;43.882;2022-11-15T17:36:13;5.82;;;2.83;;
70301;SDS011;57706;56.326;43.882;2022-11-15T17:38:42;7.18;;;3.30;;
70301;SDS011;57706;56.326;43.882;2022-11-15T17:43:36;7.80;;;2.75;;
70301;SDS011;57706;56.326;43.882;2022-11-15T17:46:03;5.53;;;2.90;;
70301;SDS011;57706;56.326;43.882;2022-11-15T17:48:30;6.30;;;2.90;;
70301;SDS011;57706;56.326;43.882;2022-11-15T17:50:57;9.60;;;2.90;;
70301;SDS011;57706;56.326;43.882;2022-11-15T17:53:31;6.88;;;3.10;;
70301;SDS011;57706;56.326;43.882;2022-11-15T17:56:02;5.50;;;2.85;;
70301;SDS011;57706;56.326;43.882;2022-11-15T17:58:30;5.63;;;3.10;;
70301;SDS011;57706;56.326;43.882;2022-11-15T18:03:37;5.95;;;3.13;;
70301;SDS011;57706;56.326;43.882;2022-11-15T18:06:04;6.40;;;2.90;;
70301;SDS011;57706;56.326;43.882;2022-11-15T18:08:31;4.25;;;2.58;;
70301;SDS011;57706;56.326;43.882;2022-11-15T18:11:00;5.10;;;2.95;;
70301;SDS011;57706;56.326;43.882;2022-11-15T18:13:27;4.97;;;2.85;;
70301;SDS011;57706;56.326;43.882;2022-11-15T18:15:53;6.32;;;3.17;;
70301;SDS011;57706;56.326;43.882;2022-11-15T18:18:27;9.68;;;3.65;;
70301;SDS011;57706;56.326;43.882;2022-11-15T18:21:10;6.05;;;3.28;;
70301;SDS011;57706;56.326;43.882;2022-11-15T18:24:00;5.35;;;3.03;;
70301;SDS011;57706;56.326;43.882;2022-11-15T18:26:27;6.95;;;3.03;;
70301;SDS011;57706;56.326;43.882;2022-11-15T18:29:12;6.53;;;3.50;;
70301;SDS011;57706;56.326;43.882;2022-11-15T18:31:38;8.35;;;3.00;;
70301;SDS011;57706;56.326;43.882;2022-11-15T18:34:04;6.25;;;3.13;;
70301;SDS011;57706;56.326;43.882;2022-11-15T18:36:30;7.88;;;2.95;;
70301;SDS011;57706;56.326;43.882;2022-11-15T18:38:57;9.35;;;3.35;;
70301;SDS011;57706;56.326;43.882;2022-11-15T18:41:27;8.82;;;2.83;;